sensor_id;sensor_type;location;lat;lon;timestamp;pressure;altitude;pressure_sealevel;temperature;humidity
78431;BME280;67727;50.236;22.452;2023-02-11T00:00:41;101256.23;;;0.36;66.63
78431;BME280;67727;50.236;22.452;2023-02-11T00:03:24;101252.41;;;0.33;66.78
78431;BME280;67727;50.236;22.452;2023-02-11T00:06:00;101254.82;;;0.30;66.73
78431;BME280;67727;50.236;22.452;2023-02-11T00:08:30;101252.19;;;0.26;67.16
78431;BME280;67727;50.236;22.452;2023-02-11T00:10:57;101249.41;;;0.22;67.11
78431;BME280;67727;50.236;22.452;2023-02-11T00:13:24;101248.51;;;0.20;67.32
78431;BME280;67727;50.236;22.452;2023-02-11T00:15:52;101244.25;;;0.17;67.21
78431;BME280;67727;50.236;22.452;2023-02-11T00:18:19;101244.50;;;0.16;67.52
78431;BME280;67727;50.236;22.452;2023-02-11T00:20:46;101246.52;;;0.14;67.51
78431;BME280;67727;50.236;22.452;2023-02-11T00:23:13;101244.55;;;0.11;67.51
78431;BME280;67727;50.236;22.452;2023-02-11T00:25:44;101242.69;;;0.10;67.59
78431;BME280;67727;50.236;22.452;2023-02-11T00:28:11;101235.98;;;0.09;67.79
78431;BME280;67727;50.236;22.452;2023-02-11T00:30:38;101227.57;;;0.07;67.97
78431;BME280;67727;50.236;22.452;2023-02-11T00:33:05;101228.58;;;0.07;67.96
78431;BME280;67727;50.236;22.452;2023-02-11T00:35:32;101231.36;;;0.11;67.88
78431;BME280;67727;50.236;22.452;2023-02-11T00:37:59;101230.58;;;0.16;67.68
78431;BME280;67727;50.236;22.452;2023-02-11T00:40:26;101227.39;;;0.21;67.93
78431;BME280;67727;50.236;22.452;2023-02-11T00:42:54;101225.59;;;0.26;67.88
78431;BME280;67727;50.236;22.452;2023-02-11T00:45:21;101222.69;;;0.29;67.74
78431;BME280;67727;50.236;22.452;2023-02-11T00:47:48;101217.80;;;0.30;67.83
78431;BME280;67727;50.236;22.452;2023-02-11T00:50:15;101216.88;;;0.27;67.77
78431;BME280;67727;50.236;22.452;2023-02-11T00:52:41;101215.06;;;0.25;67.87
78431;BME280;67727;50.236;22.452;2023-02-11T00:55:11;101209.95;;;0.23;67.97
78431;BME280;67727;50.236;22.452;2023-02-11T00:57:38;101203.16;;;0.19;67.83
78431;BME280;67727;50.236;22.452;2023-02-11T01:00:07;101196.67;;;0.17;68.24
78431;BME280;67727;50.236;22.452;2023-02-11T01:02:34;101193.02;;;0.13;68.32
78431;BME280;67727;50.236;22.452;2023-02-11T01:05:01;101182.04;;;0.10;68.33
78431;BME280;67727;50.236;22.452;2023-02-11T01:07:28;101175.07;;;0.07;68.30
78431;BME280;67727;50.236;22.452;2023-02-11T01:09:55;101167.98;;;0.06;68.71
78431;BME280;67727;50.236;22.452;2023-02-11T01:12:22;101166.48;;;0.05;68.83
78431;BME280;67727;50.236;22.452;2023-02-11T01:14:49;101165.16;;;0.03;68.86
78431;BME280;67727;50.236;22.452;2023-02-11T01:17:16;101164.53;;;0.02;68.84
78431;BME280;67727;50.236;22.452;2023-02-11T01:19:43;101161.23;;;0.02;69.12
78431;BME280;67727;50.236;22.452;2023-02-11T01:22:11;101157.80;;;0.01;69.12
78431;BME280;67727;50.236;22.452;2023-02-11T01:24:38;101150.91;;;0.03;69.08
78431;BME280;67727;50.236;22.452;2023-02-11T01:27:05;101146.49;;;0.08;69.15
78431;BME280;67727;50.236;22.452;2023-02-11T01:29:32;101144.10;;;0.15;68.93
78431;BME280;67727;50.236;22.452;2023-02-11T01:31:59;101140.13;;;0.21;68.74
78431;BME280;67727;50.236;22.452;2023-02-11T01:34:27;101139.83;;;0.28;68.48
78431;BME280;67727;50.236;22.452;2023-02-11T01:36:58;101144.48;;;0.32;68.36
78431;BME280;67727;50.236;22.452;2023-02-11T01:39:25;101153.07;;;0.34;68.17
78431;BME280;67727;50.236;22.452;2023-02-11T01:41:53;101146.91;;;0.36;68.02
78431;BME280;67727;50.236;22.452;2023-02-11T01:44:32;101146.33;;;0.34;68.09
78431;BME280;67727;50.236;22.452;2023-02-11T01:46:59;101139.09;;;0.32;67.88
78431;BME280;67727;50.236;22.452;2023-02-11T01:49:30;101132.45;;;0.30;67.75
78431;BME280;67727;50.236;22.452;2023-02-11T01:54:30;101121.21;;;0.24;67.68
78431;BME280;67727;50.236;22.452;2023-02-11T01:57:21;101124.48;;;0.21;67.41
78431;BME280;67727;50.236;22.452;2023-02-11T02:02:26;101128.45;;;0.15;67.49
78431;BME280;67727;50.236;22.452;2023-02-11T02:05:13;101126.67;;;0.12;67.48
78431;BME280;67727;50.236;22.452;2023-02-11T02:07:57;101125.47;;;0.08;67.50
78431;BME280;67727;50.236;22.452;2023-02-11T02:10:27;101120.53;;;0.06;67.42
78431;BME280;67727;50.236;22.452;2023-02-11T02:12:54;101116.69;;;0.03;67.33
78431;BME280;67727;50.236;22.452;2023-02-11T02:15:28;101113.15;;;0.01;67.29
78431;BME280;67727;50.236;22.452;2023-02-11T02:18:19;101109.55;;;-0.00;67.41
78431;BME280;67727;50.236;22.452;2023-02-11T02:23:35;101109.94;;;0.06;67.38
78431;BME280;67727;50.236;22.452;2023-02-11T02:37:17;101097.20;;;0.25;66.55
78431;BME280;67727;50.236;22.452;2023-02-11T02:39:47;101095.83;;;0.21;66.55
78431;BME280;67727;50.236;22.452;2023-02-11T02:42:17;101093.05;;;0.17;66.58
78431;BME280;67727;50.236;22.452;2023-02-11T02:44:49;101091.21;;;0.12;66.53
78431;BME280;67727;50.236;22.452;2023-02-11T02:47:18;101093.18;;;0.08;66.62
78431;BME280;67727;50.236;22.452;2023-02-11T02:55:33;101086.95;;;-0.07;66.83
78431;BME280;67727;50.236;22.452;2023-02-11T03:03:49;101084.45;;;-0.20;66.94
78431;BME280;67727;50.236;22.452;2023-02-11T03:09:18;101080.42;;;-0.27;66.97
78431;BME280;67727;50.236;22.452;2023-02-11T03:11:48;101078.27;;;-0.29;67.27
78431;BME280;67727;50.236;22.452;2023-02-11T03:14:17;101079.78;;;-0.31;67.38
78431;BME280;67727;50.236;22.452;2023-02-11T03:16:45;101076.75;;;-0.34;67.21
78431;BME280;67727;50.236;22.452;2023-02-11T03:19:20;101077.11;;;-0.34;67.28
78431;BME280;67727;50.236;22.452;2023-02-11T03:21:49;101069.44;;;-0.33;67.31
78431;BME280;67727;50.236;22.452;2023-02-11T03:24:28;101062.80;;;-0.29;67.26
78431;BME280;67727;50.236;22.452;2023-02-11T03:27:01;101056.23;;;-0.22;67.09
78431;BME280;67727;50.236;22.452;2023-02-11T03:29:38;101050.60;;;-0.17;66.93
78431;BME280;67727;50.236;22.452;2023-02-11T03:32:15;101050.39;;;-0.13;66.59
78431;BME280;67727;50.236;22.452;2023-02-11T03:34:49;101041.98;;;-0.11;66.38
78431;BME280;67727;50.236;22.452;2023-02-11T03:37:29;101024.86;;;-0.12;66.27
78431;BME280;67727;50.236;22.452;2023-02-11T03:40:26;101010.66;;;-0.17;66.11
78431;BME280;67727;50.236;22.452;2023-02-11T03:43:03;101011.45;;;-0.22;66.10
78431;BME280;67727;50.236;22.452;2023-02-11T03:45:32;101006.52;;;-0.29;66.21
78431;BME280;67727;50.236;22.452;2023-02-11T03:48:18;101001.52;;;-0.33;66.24
78431;BME280;67727;50.236;22.452;2023-02-11T03:50:47;100997.11;;;-0.38;66.27
78431;BME280;67727;50.236;22.452;2023-02-11T03:53:14;100993.86;;;-0.43;66.42
78431;BME280;67727;50.236;22.452;2023-02-11T03:55:43;100982.48;;;-0.48;66.26
78431;BME280;67727;50.236;22.452;2023-02-11T03:58:12;100979.84;;;-0.54;66.30
78431;BME280;67727;50.236;22.452;2023-02-11T04:00:41;100980.59;;;-0.59;66.15
78431;BME280;67727;50.236;22.452;2023-02-11T04:03:09;100972.51;;;-0.64;66.39
78431;BME280;67727;50.236;22.452;2023-02-11T04:05:37;100970.46;;;-0.69;66.50
78431;BME280;67727;50.236;22.452;2023-02-11T04:08:04;100971.92;;;-0.74;66.26
78431;BME280;67727;50.236;22.452;2023-02-11T04:10:31;100968.63;;;-0.77;66.48
78431;BME280;67727;50.236;22.452;2023-02-11T04:13:00;100964.59;;;-0.80;66.30
78431;BME280;67727;50.236;22.452;2023-02-11T04:15:27;100958.14;;;-0.83;66.25
78431;BME280;67727;50.236;22.452;2023-02-11T04:17:56;100959.09;;;-0.85;66.52
78431;BME280;67727;50.236;22.452;2023-02-11T04:20:23;100949.11;;;-0.87;66.58
78431;BME280;67727;50.236;22.452;2023-02-11T04:22:50;100942.48;;;-0.90;66.71
78431;BME280;67727;50.236;22.452;2023-02-11T04:25:17;100936.52;;;-0.92;66.62
78431;BME280;67727;50.236;22.452;2023-02-11T04:27:44;100938.34;;;-0.94;66.95
78431;BME280;67727;50.236;22.452;2023-02-11T04:30:12;100933.46;;;-0.97;66.89
78431;BME280;67727;50.236;22.452;2023-02-11T04:32:39;100926.80;;;-0.99;66.89
78431;BME280;67727;50.236;22.452;2023-02-11T04:35:06;100924.17;;;-1.02;67.22
78431;BME280;67727;50.236;22.452;2023-02-11T04:37:33;100920.44;;;-1.04;67.32
78431;BME280;67727;50.236;22.452;2023-02-11T04:40:02;100919.66;;;-1.06;67.40
78431;BME280;67727;50.236;22.452;2023-02-11T04:42:29;100910.35;;;-1.07;67.20
78431;BME280;67727;50.236;22.452;2023-02-11T04:44:56;100911.44;;;-1.08;67.45
78431;BME280;67727;50.236;22.452;2023-02-11T04:47:23;100908.25;;;-1.06;67.34
78431;BME280;67727;50.236;22.452;2023-02-11T04:49:49;100910.42;;;-1.01;67.03
78431;BME280;67727;50.236;22.452;2023-02-11T04:52:17;100909.15;;;-0.96;66.77
78431;BME280;67727;50.236;22.452;2023-02-11T04:54:43;100905.27;;;-0.92;66.47
78431;BME280;67727;50.236;22.452;2023-02-11T04:57:10;100907.79;;;-0.86;66.39
78431;BME280;67727;50.236;22.452;2023-02-11T04:59:37;100912.65;;;-0.83;66.19
78431;BME280;67727;50.236;22.452;2023-02-11T05:02:04;100914.73;;;-0.83;65.88
78431;BME280;67727;50.236;22.452;2023-02-11T05:04:31;100917.02;;;-0.83;65.55
78431;BME280;67727;50.236;22.452;2023-02-11T05:06:58;100920.96;;;-0.86;65.45
78431;BME280;67727;50.236;22.452;2023-02-11T05:09:25;100923.22;;;-0.89;65.18
78431;BME280;67727;50.236;22.452;2023-02-11T05:11:52;100929.83;;;-0.94;65.29
78431;BME280;67727;50.236;22.452;2023-02-11T05:14:19;100926.55;;;-0.98;65.24
78431;BME280;67727;50.236;22.452;2023-02-11T05:16:46;100922.92;;;-1.02;65.14
78431;BME280;67727;50.236;22.452;2023-02-11T05:19:13;100921.22;;;-1.06;65.51
78431;BME280;67727;50.236;22.452;2023-02-11T05:21:40;100928.91;;;-1.11;65.21
78431;BME280;67727;50.236;22.452;2023-02-11T05:24:07;100935.34;;;-1.15;65.54
78431;BME280;67727;50.236;22.452;2023-02-11T05:26:34;100937.42;;;-1.18;65.62
78431;BME280;67727;50.236;22.452;2023-02-11T05:29:01;100949.34;;;-1.21;65.58
78431;BME280;67727;50.236;22.452;2023-02-11T05:31:28;100960.42;;;-1.24;65.68
78431;BME280;67727;50.236;22.452;2023-02-11T05:33:55;100967.98;;;-1.27;65.79
78431;BME280;67727;50.236;22.452;2023-02-11T05:36:22;100954.56;;;-1.29;66.01
78431;BME280;67727;50.236;22.452;2023-02-11T05:38:49;100938.35;;;-1.31;66.07
78431;BME280;67727;50.236;22.452;2023-02-11T05:41:16;100934.59;;;-1.32;66.01
78431;BME280;67727;50.236;22.452;2023-02-11T05:43:43;100925.80;;;-1.33;66.23
78431;BME280;67727;50.236;22.452;2023-02-11T05:46:10;100899.18;;;-1.35;66.22
78431;BME280;67727;50.236;22.452;2023-02-11T05:48:37;100879.92;;;-1.39;66.16
78431;BME280;67727;50.236;22.452;2023-02-11T05:51:04;100884.96;;;-1.43;66.18
78431;BME280;67727;50.236;22.452;2023-02-11T05:53:31;100883.92;;;-1.46;66.18
78431;BME280;67727;50.236;22.452;2023-02-11T05:55:58;100884.96;;;-1.50;66.04
78431;BME280;67727;50.236;22.452;2023-02-11T05:58:25;100871.09;;;-1.54;66.03
78431;BME280;67727;50.236;22.452;2023-02-11T06:00:54;100875.59;;;-1.57;65.74
78431;BME280;67727;50.236;22.452;2023-02-11T06:03:21;100875.05;;;-1.61;65.83
78431;BME280;67727;50.236;22.452;2023-02-11T06:05:48;100855.02;;;-1.62;66.23
78431;BME280;67727;50.236;22.452;2023-02-11T06:08:15;100852.64;;;-1.59;65.99
78431;BME280;67727;50.236;22.452;2023-02-11T06:10:44;100849.48;;;-1.55;65.78
78431;BME280;67727;50.236;22.452;2023-02-11T06:13:11;100853.04;;;-1.49;65.29
78431;BME280;67727;50.236;22.452;2023-02-11T06:15:38;100847.92;;;-1.44;65.12
78431;BME280;67727;50.236;22.452;2023-02-11T06:18:06;100840.41;;;-1.39;64.98
78431;BME280;67727;50.236;22.452;2023-02-11T06:20:33;100833.50;;;-1.35;64.82
78431;BME280;67727;50.236;22.452;2023-02-11T06:23:00;100842.41;;;-1.33;64.79
78431;BME280;67727;50.236;22.452;2023-02-11T06:25:27;100842.05;;;-1.33;64.58
78431;BME280;67727;50.236;22.452;2023-02-11T06:27:54;100827.69;;;-1.34;64.82
78431;BME280;67727;50.236;22.452;2023-02-11T06:30:23;100821.10;;;-1.34;64.64
78431;BME280;67727;50.236;22.452;2023-02-11T06:32:50;100821.35;;;-1.35;64.36
78431;BME280;67727;50.236;22.452;2023-02-11T06:35:17;100813.69;;;-1.38;64.66
78431;BME280;67727;50.236;22.452;2023-02-11T06:37:44;100812.87;;;-1.40;64.47
78431;BME280;67727;50.236;22.452;2023-02-11T06:40:12;100810.13;;;-1.40;64.74
78431;BME280;67727;50.236;22.452;2023-02-11T06:42:39;100815.94;;;-1.42;64.33
78431;BME280;67727;50.236;22.452;2023-02-11T06:45:10;100815.27;;;-1.43;64.42
78431;BME280;67727;50.236;22.452;2023-02-11T06:47:39;100816.09;;;-1.41;64.46
78431;BME280;67727;50.236;22.452;2023-02-11T06:50:09;100814.54;;;-1.42;64.59
78431;BME280;67727;50.236;22.452;2023-02-11T06:52:37;100811.63;;;-1.42;64.50
78431;BME280;67727;50.236;22.452;2023-02-11T06:55:05;100807.16;;;-1.43;64.53
78431;BME280;67727;50.236;22.452;2023-02-11T06:57:32;100802.30;;;-1.43;64.54
78431;BME280;67727;50.236;22.452;2023-02-11T06:59:59;100802.11;;;-1.43;64.59
78431;BME280;67727;50.236;22.452;2023-02-11T07:02:26;100801.19;;;-1.42;64.51
78431;BME280;67727;50.236;22.452;2023-02-11T07:04:53;100800.27;;;-1.41;64.54
78431;BME280;67727;50.236;22.452;2023-02-11T07:07:20;100798.47;;;-1.39;64.51
78431;BME280;67727;50.236;22.452;2023-02-11T07:09:47;100797.35;;;-1.37;64.18
78431;BME280;67727;50.236;22.452;2023-02-11T07:12:14;100791.14;;;-1.34;64.25
78431;BME280;67727;50.236;22.452;2023-02-11T07:14:41;100779.85;;;-1.30;64.34
78431;BME280;67727;50.236;22.452;2023-02-11T07:17:08;100785.23;;;-1.27;64.31
78431;BME280;67727;50.236;22.452;2023-02-11T07:19:35;100781.52;;;-1.22;64.22
78431;BME280;67727;50.236;22.452;2023-02-11T07:22:02;100777.59;;;-1.16;63.92
78431;BME280;67727;50.236;22.452;2023-02-11T07:24:29;100780.77;;;-1.10;63.93
78431;BME280;67727;50.236;22.452;2023-02-11T07:26:56;100778.89;;;-1.04;63.71
78431;BME280;67727;50.236;22.452;2023-02-11T07:29:22;100771.82;;;-0.98;63.61
78431;BME280;67727;50.236;22.452;2023-02-11T07:31:49;100772.39;;;-0.92;63.36
78431;BME280;67727;50.236;22.452;2023-02-11T07:34:16;100764.34;;;-0.84;63.63
78431;BME280;67727;50.236;22.452;2023-02-11T07:36:44;100761.45;;;-0.74;63.38
78431;BME280;67727;50.236;22.452;2023-02-11T07:39:11;100767.62;;;-0.66;63.07
78431;BME280;67727;50.236;22.452;2023-02-11T07:41:38;100767.52;;;-0.61;62.20
78431;BME280;67727;50.236;22.452;2023-02-11T07:44:06;100768.47;;;-0.55;62.24
78431;BME280;67727;50.236;22.452;2023-02-11T07:46:33;100766.01;;;-0.52;62.34
78431;BME280;67727;50.236;22.452;2023-02-11T07:49:01;100760.56;;;-0.47;62.00
78431;BME280;67727;50.236;22.452;2023-02-11T07:51:29;100757.75;;;-0.43;62.15
78431;BME280;67727;50.236;22.452;2023-02-11T07:53:58;100750.67;;;-0.38;61.93
78431;BME280;67727;50.236;22.452;2023-02-11T07:56:25;100748.06;;;-0.31;61.65
78431;BME280;67727;50.236;22.452;2023-02-11T07:58:53;100744.49;;;-0.22;61.48
78431;BME280;67727;50.236;22.452;2023-02-11T08:01:21;100751.61;;;-0.16;61.14
78431;BME280;67727;50.236;22.452;2023-02-11T08:03:51;100751.52;;;-0.11;60.97
78431;BME280;67727;50.236;22.452;2023-02-11T08:06:20;100751.80;;;-0.07;61.09
78431;BME280;67727;50.236;22.452;2023-02-11T08:08:47;100751.84;;;-0.01;60.90
78431;BME280;67727;50.236;22.452;2023-02-11T08:11:17;100750.88;;;0.07;60.80
78431;BME280;67727;50.236;22.452;2023-02-11T08:13:45;100749.58;;;0.15;60.57
78431;BME280;67727;50.236;22.452;2023-02-11T08:18:48;100733.27;;;0.30;60.38
78431;BME280;67727;50.236;22.452;2023-02-11T08:21:15;100731.64;;;0.38;60.35
78431;BME280;67727;50.236;22.452;2023-02-11T08:23:43;100735.56;;;0.45;60.09
78431;BME280;67727;50.236;22.452;2023-02-11T08:26:11;100729.24;;;0.52;59.69
78431;BME280;67727;50.236;22.452;2023-02-11T08:28:41;100726.92;;;0.57;59.55
78431;BME280;67727;50.236;22.452;2023-02-11T08:31:14;100717.47;;;0.61;59.68
78431;BME280;67727;50.236;22.452;2023-02-11T08:33:42;100712.19;;;0.65;59.25
78431;BME280;67727;50.236;22.452;2023-02-11T08:36:12;100713.39;;;0.68;58.78
78431;BME280;67727;50.236;22.452;2023-02-11T08:38:40;100709.59;;;0.70;58.72
78431;BME280;67727;50.236;22.452;2023-02-11T08:41:07;100706.20;;;0.78;58.97
78431;BME280;67727;50.236;22.452;2023-02-11T08:43:35;100697.80;;;0.85;58.69
78431;BME280;67727;50.236;22.452;2023-02-11T08:46:03;100704.55;;;0.92;58.26
78431;BME280;67727;50.236;22.452;2023-02-11T08:48:31;100705.84;;;0.96;57.98
78431;BME280;67727;50.236;22.452;2023-02-11T08:50:58;100704.92;;;1.06;58.22
78431;BME280;67727;50.236;22.452;2023-02-11T08:53:25;100703.29;;;1.18;58.37
78431;BME280;67727;50.236;22.452;2023-02-11T08:55:54;100697.21;;;1.30;58.10
78431;BME280;67727;50.236;22.452;2023-02-11T08:58:21;100698.02;;;1.45;57.66
78431;BME280;67727;50.236;22.452;2023-02-11T09:00:48;100690.19;;;1.59;57.18
78431;BME280;67727;50.236;22.452;2023-02-11T09:03:16;100683.83;;;1.72;56.85
78431;BME280;67727;50.236;22.452;2023-02-11T09:05:47;100680.63;;;1.84;56.83
78431;BME280;67727;50.236;22.452;2023-02-11T09:08:15;100685.15;;;1.95;56.01
78431;BME280;67727;50.236;22.452;2023-02-11T09:10:42;100682.94;;;2.00;55.84
78431;BME280;67727;50.236;22.452;2023-02-11T09:13:09;100682.67;;;2.10;56.02
78431;BME280;67727;50.236;22.452;2023-02-11T09:15:36;100683.24;;;2.25;56.23
78431;BME280;67727;50.236;22.452;2023-02-11T09:18:04;100675.99;;;2.39;55.14
78431;BME280;67727;50.236;22.452;2023-02-11T09:20:30;100671.20;;;2.52;55.26
78431;BME280;67727;50.236;22.452;2023-02-11T09:22:58;100664.10;;;2.67;55.25
78431;BME280;67727;50.236;22.452;2023-02-11T09:25:25;100661.52;;;2.82;54.49
78431;BME280;67727;50.236;22.452;2023-02-11T09:27:52;100664.92;;;2.91;53.99
78431;BME280;67727;50.236;22.452;2023-02-11T09:30:19;100664.13;;;3.03;53.95
78431;BME280;67727;50.236;22.452;2023-02-11T09:32:46;100669.06;;;3.22;53.71
78431;BME280;67727;50.236;22.452;2023-02-11T09:35:13;100665.58;;;3.49;53.54
78431;BME280;67727;50.236;22.452;2023-02-11T09:37:40;100672.10;;;3.76;53.09
78431;BME280;67727;50.236;22.452;2023-02-11T09:40:08;100659.95;;;3.87;52.80
78431;BME280;67727;50.236;22.452;2023-02-11T09:42:52;100657.00;;;3.82;52.54
78431;BME280;67727;50.236;22.452;2023-02-11T09:45:27;100654.63;;;3.78;52.05
78431;BME280;67727;50.236;22.452;2023-02-11T09:48:19;100652.48;;;3.82;52.28
78431;BME280;67727;50.236;22.452;2023-02-11T09:50:57;100639.79;;;3.88;51.69
78431;BME280;67727;50.236;22.452;2023-02-11T09:53:28;100638.08;;;3.90;51.73
78431;BME280;67727;50.236;22.452;2023-02-11T09:56:01;100633.81;;;3.93;52.00
78431;BME280;67727;50.236;22.452;2023-02-11T09:58:34;100637.24;;;3.99;51.75
78431;BME280;67727;50.236;22.452;2023-02-11T10:09:03;100638.46;;;4.04;50.52
78431;BME280;67727;50.236;22.452;2023-02-11T10:19:30;100623.63;;;3.81;51.36
78431;BME280;67727;50.236;22.452;2023-02-11T10:24:37;100604.05;;;3.67;50.57
78431;BME280;67727;50.236;22.452;2023-02-11T10:27:21;100588.13;;;3.60;51.45
78431;BME280;67727;50.236;22.452;2023-02-11T10:29:54;100578.99;;;3.53;51.23
78431;BME280;67727;50.236;22.452;2023-02-11T10:32:31;100571.59;;;3.44;51.41
78431;BME280;67727;50.236;22.452;2023-02-11T10:35:12;100564.60;;;3.40;51.63
78431;BME280;67727;50.236;22.452;2023-02-11T10:37:41;100560.22;;;3.40;52.30
78431;BME280;67727;50.236;22.452;2023-02-11T10:40:20;100550.41;;;3.42;52.29
78431;BME280;67727;50.236;22.452;2023-02-11T10:42:51;100537.05;;;3.46;52.05
78431;BME280;67727;50.236;22.452;2023-02-11T10:45:48;100525.92;;;3.53;52.25
78431;BME280;67727;50.236;22.452;2023-02-11T10:48:49;100521.90;;;3.68;51.74
78431;BME280;67727;50.236;22.452;2023-02-11T10:54:16;100517.34;;;4.05;51.22
78431;BME280;67727;50.236;22.452;2023-02-11T10:56:50;100508.55;;;4.20;51.06
78431;BME280;67727;50.236;22.452;2023-02-11T10:59:33;100500.50;;;4.26;50.79
78431;BME280;67727;50.236;22.452;2023-02-11T11:02:27;100500.73;;;4.26;50.81
78431;BME280;67727;50.236;22.452;2023-02-11T11:05:14;100501.87;;;4.25;50.33
78431;BME280;67727;50.236;22.452;2023-02-11T11:07:52;100499.71;;;4.21;50.36
78431;BME280;67727;50.236;22.452;2023-02-11T11:12:53;100473.54;;;3.92;50.88
78431;BME280;67727;50.236;22.452;2023-02-11T11:15:23;100466.46;;;3.77;51.89
78431;BME280;67727;50.236;22.452;2023-02-11T11:18:09;100454.85;;;3.67;51.87
78431;BME280;67727;50.236;22.452;2023-02-11T11:20:52;100448.33;;;3.63;51.97
78431;BME280;67727;50.236;22.452;2023-02-11T11:23:22;100434.49;;;3.58;52.24
78431;BME280;67727;50.236;22.452;2023-02-11T11:26:00;100429.70;;;3.59;52.43
78431;BME280;67727;50.236;22.452;2023-02-11T11:31:16;100426.28;;;3.65;52.31
78431;BME280;67727;50.236;22.452;2023-02-11T11:33:45;100427.87;;;3.65;52.35
78431;BME280;67727;50.236;22.452;2023-02-11T11:36:16;100423.08;;;3.68;52.46
78431;BME280;67727;50.236;22.452;2023-02-11T11:38:52;100424.91;;;3.74;52.84
78431;BME280;67727;50.236;22.452;2023-02-11T11:46:35;100419.37;;;3.78;52.88
78431;BME280;67727;50.236;22.452;2023-02-11T11:51:53;100422.49;;;3.76;52.90
78431;BME280;67727;50.236;22.452;2023-02-11T11:54:23;100424.52;;;3.68;53.05
78431;BME280;67727;50.236;22.452;2023-02-11T11:56:59;100422.11;;;3.60;53.39
78431;BME280;67727;50.236;22.452;2023-02-11T11:59:28;100421.10;;;3.60;53.71
78431;BME280;67727;50.236;22.452;2023-02-11T12:05:08;100425.41;;;3.61;52.99
78431;BME280;67727;50.236;22.452;2023-02-11T12:07:57;100421.96;;;3.55;53.06
78431;BME280;67727;50.236;22.452;2023-02-11T12:16:00;100412.38;;;3.38;54.13
78431;BME280;67727;50.236;22.452;2023-02-11T12:21:34;100394.63;;;3.35;54.04
78431;BME280;67727;50.236;22.452;2023-02-11T12:27:05;100401.59;;;3.30;54.67
78431;BME280;67727;50.236;22.452;2023-02-11T12:32:16;100398.45;;;3.19;54.47
78431;BME280;67727;50.236;22.452;2023-02-11T12:37:54;100394.58;;;3.07;54.84
78431;BME280;67727;50.236;22.452;2023-02-11T12:43:36;100378.56;;;2.94;55.08
78431;BME280;67727;50.236;22.452;2023-02-11T12:46:33;100371.70;;;2.90;55.40
78431;BME280;67727;50.236;22.452;2023-02-11T12:54:34;100337.70;;;2.80;56.42
78431;BME280;67727;50.236;22.452;2023-02-11T12:57:20;100331.54;;;2.76;56.49
78431;BME280;67727;50.236;22.452;2023-02-11T13:00:03;100321.62;;;2.68;56.20
78431;BME280;67727;50.236;22.452;2023-02-11T13:05:23;100330.89;;;2.59;56.45
78431;BME280;67727;50.236;22.452;2023-02-11T13:07:56;100324.84;;;2.53;56.74
78431;BME280;67727;50.236;22.452;2023-02-11T13:10:29;100332.59;;;2.50;56.99
78431;BME280;67727;50.236;22.452;2023-02-11T13:12:59;100327.06;;;2.47;57.58
78431;BME280;67727;50.236;22.452;2023-02-11T13:15:46;100327.55;;;2.44;57.66
78431;BME280;67727;50.236;22.452;2023-02-11T13:18:33;100320.90;;;2.42;57.90
78431;BME280;67727;50.236;22.452;2023-02-11T13:26:18;100289.48;;;2.40;58.34
78431;BME280;67727;50.236;22.452;2023-02-11T13:31:40;100285.56;;;2.39;58.37
78431;BME280;67727;50.236;22.452;2023-02-11T13:34:25;100291.92;;;2.38;58.38
78431;BME280;67727;50.236;22.452;2023-02-11T13:36:53;100291.38;;;2.35;58.41
78431;BME280;67727;50.236;22.452;2023-02-11T13:39:22;100294.75;;;2.32;58.62
78431;BME280;67727;50.236;22.452;2023-02-11T13:41:49;100305.74;;;2.30;59.10
78431;BME280;67727;50.236;22.452;2023-02-11T13:44:21;100313.46;;;2.27;58.95
78431;BME280;67727;50.236;22.452;2023-02-11T13:49:48;100314.35;;;2.19;58.62
78431;BME280;67727;50.236;22.452;2023-02-11T13:52:28;100313.09;;;2.14;58.95
78431;BME280;67727;50.236;22.452;2023-02-11T13:55:21;100309.90;;;2.13;59.08
78431;BME280;67727;50.236;22.452;2023-02-11T14:14:25;100345.20;;;2.19;60.95
78431;BME280;67727;50.236;22.452;2023-02-11T14:19:41;100349.46;;;2.23;61.28
78431;BME280;67727;50.236;22.452;2023-02-11T14:22:15;100340.81;;;2.22;62.86
78431;BME280;67727;50.236;22.452;2023-02-11T14:24:44;100339.38;;;2.18;63.72
78431;BME280;67727;50.236;22.452;2023-02-11T14:36:07;100329.66;;;1.84;68.27
78431;BME280;67727;50.236;22.452;2023-02-11T14:41:32;100329.15;;;1.79;69.01
78431;BME280;67727;50.236;22.452;2023-02-11T14:44:14;100329.48;;;1.77;69.12
78431;BME280;67727;50.236;22.452;2023-02-11T14:46:44;100326.54;;;1.74;69.52
78431;BME280;67727;50.236;22.452;2023-02-11T14:49:22;100331.94;;;1.69;69.96
78431;BME280;67727;50.236;22.452;2023-02-11T14:51:55;100333.81;;;1.62;70.82
78431;BME280;67727;50.236;22.452;2023-02-11T14:54:25;100330.78;;;1.53;71.33
78431;BME280;67727;50.236;22.452;2023-02-11T14:59:33;100323.61;;;1.35;73.03
78431;BME280;67727;50.236;22.452;2023-02-11T15:02:00;100329.02;;;1.26;73.10
78431;BME280;67727;50.236;22.452;2023-02-11T15:04:32;100323.55;;;1.22;73.39
78431;BME280;67727;50.236;22.452;2023-02-11T15:07:04;100331.27;;;1.22;73.84
78431;BME280;67727;50.236;22.452;2023-02-11T15:09:42;100326.67;;;1.23;73.95
78431;BME280;67727;50.236;22.452;2023-02-11T15:12:23;100344.02;;;1.24;74.45
78431;BME280;67727;50.236;22.452;2023-02-11T15:14:55;100345.79;;;1.23;74.55
78431;BME280;67727;50.236;22.452;2023-02-11T15:17:27;100339.34;;;1.23;74.64
78431;BME280;67727;50.236;22.452;2023-02-11T15:19:59;100342.03;;;1.22;74.70
78431;BME280;67727;50.236;22.452;2023-02-11T15:22:29;100327.58;;;1.20;74.73
78431;BME280;67727;50.236;22.452;2023-02-11T15:25:01;100336.77;;;1.15;75.34
78431;BME280;67727;50.236;22.452;2023-02-11T15:27:38;100336.48;;;1.09;75.41
78431;BME280;67727;50.236;22.452;2023-02-11T15:33:20;100333.65;;;0.99;75.86